TimeCST,TemperatureF,Dew PointF,Humidity,Sea Level PressureIn,VisibilityMPH,Wind Direction,Wind SpeedMPH,Gust SpeedMPH,PrecipitationIn,Events,Conditions,WindDirDegrees,DateUTC
12:53 AM,32.0,28.9,88,30.39,8.0,SSE,6.9,-,N/A,,Clear,150,2012-11-17 06:53:00
1:53 AM,30.9,28.9,92,30.40,8.0,SE,6.9,-,N/A,,Clear,140,2012-11-17 07:53:00
2:53 AM,33.1,30.0,89,30.40,8.0,SE,6.9,-,N/A,,Clear,140,2012-11-17 08:53:00
3:53 AM,30.0,28.0,92,30.39,6.0,SE,6.9,-,N/A,,Clear,130,2012-11-17 09:53:00
4:53 AM,28.9,28.0,96,30.40,6.0,SE,5.8,-,N/A,,Clear,130,2012-11-17 10:53:00
5:53 AM,30.9,28.9,92,30.41,6.0,SE,6.9,-,N/A,,Clear,140,2012-11-17 11:53:00
6:53 AM,30.0,28.9,96,30.40,5.0,SE,8.1,-,N/A,,Clear,130,2012-11-17 12:53:00
7:53 AM,34.0,32.0,92,30.41,5.0,SE,8.1,-,N/A,,Clear,140,2012-11-17 13:53:00
8:53 AM,37.9,33.1,83,30.41,8.0,SSE,11.5,-,N/A,,Clear,150,2012-11-17 14:53:00
9:53 AM,45.0,36.0,71,30.40,10.0,SSE,11.5,-,N/A,,Clear,160,2012-11-17 15:53:00
10:53 AM,48.9,36.0,61,30.40,10.0,South,12.7,-,N/A,,Unknown,170,2012-11-17 16:53:00
11:53 AM,55.9,37.0,49,30.36,10.0,South,15.0,-,N/A,,Clear,180,2012-11-17 17:53:00
12:53 PM,59.0,37.0,44,30.34,10.0,South,17.3,25.3,N/A,,Clear,170,2012-11-17 18:53:00
1:53 PM,59.0,36.0,42,30.32,10.0,SSE,15.0,24.2,N/A,,Clear,160,2012-11-17 19:53:00
2:53 PM,57.9,35.1,42,30.30,10.0,SSE,19.6,23.0,N/A,,Clear,160,2012-11-17 20:53:00
3:53 PM,57.0,34.0,42,30.30,10.0,SSE,13.8,24.2,N/A,,Clear,160,2012-11-17 21:53:00
4:53 PM,53.1,34.0,48,30.32,10.0,SSE,11.5,-,N/A,,Clear,150,2012-11-17 22:53:00
5:53 PM,48.9,35.1,59,30.31,10.0,SE,10.4,-,N/A,,Clear,140,2012-11-17 23:53:00
6:53 PM,46.9,34.0,61,30.31,10.0,SE,11.5,-,N/A,,Clear,140,2012-11-18 00:53:00
7:53 PM,46.0,34.0,63,30.32,10.0,SE,11.5,-,N/A,,Clear,140,2012-11-18 01:53:00
8:53 PM,46.0,33.1,61,30.32,10.0,SSE,15.0,-,N/A,,Clear,150,2012-11-18 02:53:00
9:53 PM,44.1,33.1,65,30.31,10.0,SSE,11.5,-,N/A,,Clear,150,2012-11-18 03:53:00
10:53 PM,44.1,32.0,63,30.30,10.0,SSE,12.7,-,N/A,,Clear,150,2012-11-18 04:53:00
11:53 PM,43.0,30.9,62,30.29,10.0,SSE,11.5,-,N/A,,Clear,150,2012-11-18 05:53:00